sensor_id;sensor_type;location;lat;lon;timestamp;temperature;humidity
35381;DHT22;21486;51.916;8.378;2023-05-10T00:01:55;14.80;99.90
35381;DHT22;21486;51.916;8.378;2023-05-10T00:04:20;14.90;99.90
35381;DHT22;21486;51.916;8.378;2023-05-10T00:06:46;14.90;99.90
35381;DHT22;21486;51.916;8.378;2023-05-10T00:09:12;14.80;99.90
35381;DHT22;21486;51.916;8.378;2023-05-10T00:11:37;14.80;99.90
35381;DHT22;21486;51.916;8.378;2023-05-10T00:14:03;14.80;99.90
35381;DHT22;21486;51.916;8.378;2023-05-10T00:16:29;14.80;99.90
35381;DHT22;21486;51.916;8.378;2023-05-10T00:18:54;14.80;99.90
35381;DHT22;21486;51.916;8.378;2023-05-10T00:21:20;14.80;99.90
35381;DHT22;21486;51.916;8.378;2023-05-10T00:23:45;14.80;99.90
35381;DHT22;21486;51.916;8.378;2023-05-10T00:26:11;14.90;99.90
35381;DHT22;21486;51.916;8.378;2023-05-10T00:28:36;14.90;99.90
35381;DHT22;21486;51.916;8.378;2023-05-10T00:33:04;14.80;99.90
35381;DHT22;21486;51.916;8.378;2023-05-10T00:35:29;14.90;99.90
35381;DHT22;21486;51.916;8.378;2023-05-10T00:37:55;14.90;99.90
35381;DHT22;21486;51.916;8.378;2023-05-10T00:40:20;14.80;99.90
35381;DHT22;21486;51.916;8.378;2023-05-10T00:42:46;14.80;99.90
35381;DHT22;21486;51.916;8.378;2023-05-10T00:45:11;14.90;99.90
35381;DHT22;21486;51.916;8.378;2023-05-10T00:47:37;14.80;99.90
35381;DHT22;21486;51.916;8.378;2023-05-10T00:50:03;14.90;99.90
35381;DHT22;21486;51.916;8.378;2023-05-10T00:52:30;14.80;99.90
35381;DHT22;21486;51.916;8.378;2023-05-10T00:54:56;14.90;99.90
35381;DHT22;21486;51.916;8.378;2023-05-10T00:57:22;14.90;99.90
35381;DHT22;21486;51.916;8.378;2023-05-10T00:59:48;14.90;99.90
35381;DHT22;21486;51.916;8.378;2023-05-10T01:02:14;14.80;99.90
35381;DHT22;21486;51.916;8.378;2023-05-10T01:04:39;14.80;99.90
35381;DHT22;21486;51.916;8.378;2023-05-10T01:07:06;14.70;99.90
35381;DHT22;21486;51.916;8.378;2023-05-10T01:09:32;14.70;99.90
35381;DHT22;21486;51.916;8.378;2023-05-10T01:11:59;14.60;99.90
35381;DHT22;21486;51.916;8.378;2023-05-10T01:14:25;14.70;99.90
35381;DHT22;21486;51.916;8.378;2023-05-10T01:16:52;14.70;99.90
35381;DHT22;21486;51.916;8.378;2023-05-10T01:32:36;14.70;99.90
35381;DHT22;21486;51.916;8.378;2023-05-10T01:35:10;14.70;99.90
35381;DHT22;21486;51.916;8.378;2023-05-10T01:37:45;14.70;99.90
35381;DHT22;21486;51.916;8.378;2023-05-10T01:41:00;14.60;99.90
35381;DHT22;21486;51.916;8.378;2023-05-10T01:43:24;14.60;99.90
35381;DHT22;21486;51.916;8.378;2023-05-10T01:46:15;14.60;99.90
35381;DHT22;21486;51.916;8.378;2023-05-10T01:48:47;14.40;99.90
35381;DHT22;21486;51.916;8.378;2023-05-10T01:51:19;14.40;99.90
35381;DHT22;21486;51.916;8.378;2023-05-10T01:53:46;14.40;99.90
35381;DHT22;21486;51.916;8.378;2023-05-10T01:56:13;14.50;99.90
35381;DHT22;21486;51.916;8.378;2023-05-10T01:58:40;14.40;99.90
35381;DHT22;21486;51.916;8.378;2023-05-10T02:01:10;14.40;99.90
35381;DHT22;21486;51.916;8.378;2023-05-10T02:03:37;14.50;99.90
35381;DHT22;21486;51.916;8.378;2023-05-10T02:06:04;14.40;99.90
35381;DHT22;21486;51.916;8.378;2023-05-10T02:08:31;14.30;99.90
35381;DHT22;21486;51.916;8.378;2023-05-10T02:10:58;14.30;99.90
35381;DHT22;21486;51.916;8.378;2023-05-10T02:13:25;14.30;99.90
35381;DHT22;21486;51.916;8.378;2023-05-10T02:15:52;14.30;99.90
35381;DHT22;21486;51.916;8.378;2023-05-10T02:18:18;14.30;99.90
35381;DHT22;21486;51.916;8.378;2023-05-10T02:20:46;14.30;99.90
35381;DHT22;21486;51.916;8.378;2023-05-10T02:23:13;14.30;99.90
35381;DHT22;21486;51.916;8.378;2023-05-10T02:25:39;14.20;99.90
35381;DHT22;21486;51.916;8.378;2023-05-10T02:28:06;14.20;99.90
35381;DHT22;21486;51.916;8.378;2023-05-10T02:30:33;14.20;99.90
35381;DHT22;21486;51.916;8.378;2023-05-10T02:33:00;14.20;99.90
35381;DHT22;21486;51.916;8.378;2023-05-10T02:35:28;14.10;99.90
35381;DHT22;21486;51.916;8.378;2023-05-10T02:37:54;14.10;99.90
35381;DHT22;21486;51.916;8.378;2023-05-10T02:40:21;14.00;99.90
35381;DHT22;21486;51.916;8.378;2023-05-10T02:42:50;14.10;99.90
35381;DHT22;21486;51.916;8.378;2023-05-10T02:45:20;14.10;99.90
35381;DHT22;21486;51.916;8.378;2023-05-10T02:47:47;14.10;99.90
35381;DHT22;21486;51.916;8.378;2023-05-10T02:50:13;14.10;99.90
35381;DHT22;21486;51.916;8.378;2023-05-10T02:52:40;14.10;99.90
35381;DHT22;21486;51.916;8.378;2023-05-10T02:55:09;14.20;99.90
35381;DHT22;21486;51.916;8.378;2023-05-10T02:57:40;14.10;99.90
35381;DHT22;21486;51.916;8.378;2023-05-10T03:00:07;14.10;99.90
35381;DHT22;21486;51.916;8.378;2023-05-10T03:02:33;14.20;99.90
35381;DHT22;21486;51.916;8.378;2023-05-10T03:04:59;14.20;99.90
35381;DHT22;21486;51.916;8.378;2023-05-10T03:07:24;14.20;99.90
35381;DHT22;21486;51.916;8.378;2023-05-10T03:09:50;14.10;99.90
35381;DHT22;21486;51.916;8.378;2023-05-10T03:12:32;14.10;99.90
35381;DHT22;21486;51.916;8.378;2023-05-10T03:17:55;14.10;99.90
35381;DHT22;21486;51.916;8.378;2023-05-10T03:20:29;14.10;99.90
35381;DHT22;21486;51.916;8.378;2023-05-10T03:23:22;14.10;99.90
35381;DHT22;21486;51.916;8.378;2023-05-10T03:25:50;14.10;99.90
35381;DHT22;21486;51.916;8.378;2023-05-10T03:28:18;14.10;99.90
35381;DHT22;21486;51.916;8.378;2023-05-10T03:30:44;14.20;99.90
35381;DHT22;21486;51.916;8.378;2023-05-10T03:33:10;14.10;99.90
35381;DHT22;21486;51.916;8.378;2023-05-10T03:35:38;14.00;99.90
35381;DHT22;21486;51.916;8.378;2023-05-10T03:38:04;13.90;99.90
35381;DHT22;21486;51.916;8.378;2023-05-10T03:40:35;14.00;99.90
35381;DHT22;21486;51.916;8.378;2023-05-10T03:43:01;14.00;99.90
35381;DHT22;21486;51.916;8.378;2023-05-10T03:45:27;14.00;99.90
35381;DHT22;21486;51.916;8.378;2023-05-10T03:47:52;13.90;99.90
35381;DHT22;21486;51.916;8.378;2023-05-10T03:50:18;13.80;99.90
35381;DHT22;21486;51.916;8.378;2023-05-10T03:52:44;13.90;99.90
35381;DHT22;21486;51.916;8.378;2023-05-10T03:55:09;13.70;99.90
35381;DHT22;21486;51.916;8.378;2023-05-10T03:57:35;13.80;99.90
35381;DHT22;21486;51.916;8.378;2023-05-10T04:00:02;13.70;99.90
35381;DHT22;21486;51.916;8.378;2023-05-10T04:02:28;13.60;99.90
35381;DHT22;21486;51.916;8.378;2023-05-10T04:04:55;13.50;99.90
35381;DHT22;21486;51.916;8.378;2023-05-10T04:07:20;13.60;99.90
35381;DHT22;21486;51.916;8.378;2023-05-10T04:09:46;13.60;99.90
35381;DHT22;21486;51.916;8.378;2023-05-10T04:12:12;13.70;99.90
35381;DHT22;21486;51.916;8.378;2023-05-10T04:14:37;13.60;99.90
35381;DHT22;21486;51.916;8.378;2023-05-10T04:17:03;13.50;99.90
35381;DHT22;21486;51.916;8.378;2023-05-10T04:19:29;13.40;99.90
35381;DHT22;21486;51.916;8.378;2023-05-10T04:21:55;13.50;99.90
35381;DHT22;21486;51.916;8.378;2023-05-10T04:24:21;13.60;99.90
35381;DHT22;21486;51.916;8.378;2023-05-10T04:26:46;13.40;99.90
35381;DHT22;21486;51.916;8.378;2023-05-10T04:29:12;13.40;99.90
35381;DHT22;21486;51.916;8.378;2023-05-10T04:31:37;13.50;99.90
35381;DHT22;21486;51.916;8.378;2023-05-10T04:34:03;13.50;99.90
35381;DHT22;21486;51.916;8.378;2023-05-10T04:36:29;13.50;99.90
35381;DHT22;21486;51.916;8.378;2023-05-10T04:38:54;13.40;99.90
35381;DHT22;21486;51.916;8.378;2023-05-10T04:41:20;13.40;99.90
35381;DHT22;21486;51.916;8.378;2023-05-10T04:43:46;13.30;99.90
35381;DHT22;21486;51.916;8.378;2023-05-10T04:46:14;13.40;99.90
35381;DHT22;21486;51.916;8.378;2023-05-10T04:48:39;13.40;99.90
35381;DHT22;21486;51.916;8.378;2023-05-10T04:51:05;13.40;99.90
35381;DHT22;21486;51.916;8.378;2023-05-10T04:53:31;13.50;99.90
35381;DHT22;21486;51.916;8.378;2023-05-10T04:55:57;13.60;99.90
35381;DHT22;21486;51.916;8.378;2023-05-10T04:58:23;13.50;99.90
35381;DHT22;21486;51.916;8.378;2023-05-10T05:00:48;13.40;99.90
35381;DHT22;21486;51.916;8.378;2023-05-10T05:03:14;13.40;99.90
35381;DHT22;21486;51.916;8.378;2023-05-10T05:05:40;13.40;99.90
35381;DHT22;21486;51.916;8.378;2023-05-10T05:08:05;13.40;99.90
35381;DHT22;21486;51.916;8.378;2023-05-10T05:10:31;13.40;99.90
35381;DHT22;21486;51.916;8.378;2023-05-10T05:12:56;13.40;99.90
35381;DHT22;21486;51.916;8.378;2023-05-10T05:15:22;13.40;99.90
35381;DHT22;21486;51.916;8.378;2023-05-10T05:17:47;13.50;99.90
35381;DHT22;21486;51.916;8.378;2023-05-10T05:20:13;13.50;99.90
35381;DHT22;21486;51.916;8.378;2023-05-10T05:22:39;13.50;99.90
35381;DHT22;21486;51.916;8.378;2023-05-10T05:25:05;13.50;99.90
35381;DHT22;21486;51.916;8.378;2023-05-10T05:27:31;13.50;99.90
35381;DHT22;21486;51.916;8.378;2023-05-10T05:29:57;13.50;99.90
35381;DHT22;21486;51.916;8.378;2023-05-10T05:32:23;13.50;99.90
35381;DHT22;21486;51.916;8.378;2023-05-10T05:34:49;13.50;99.90
35381;DHT22;21486;51.916;8.378;2023-05-10T05:37:16;13.40;99.90
35381;DHT22;21486;51.916;8.378;2023-05-10T05:39:43;13.40;99.90
35381;DHT22;21486;51.916;8.378;2023-05-10T05:42:09;13.40;99.90
35381;DHT22;21486;51.916;8.378;2023-05-10T05:44:35;13.40;99.90
35381;DHT22;21486;51.916;8.378;2023-05-10T05:47:00;13.40;99.90
35381;DHT22;21486;51.916;8.378;2023-05-10T05:49:26;13.50;99.90
35381;DHT22;21486;51.916;8.378;2023-05-10T05:51:51;13.40;99.90
35381;DHT22;21486;51.916;8.378;2023-05-10T05:54:17;13.40;99.90
35381;DHT22;21486;51.916;8.378;2023-05-10T05:56:42;13.40;99.90
35381;DHT22;21486;51.916;8.378;2023-05-10T05:59:09;13.50;99.90
35381;DHT22;21486;51.916;8.378;2023-05-10T06:01:35;13.80;99.90
35381;DHT22;21486;51.916;8.378;2023-05-10T06:04:01;13.80;99.90
35381;DHT22;21486;51.916;8.378;2023-05-10T06:06:26;13.80;99.90
35381;DHT22;21486;51.916;8.378;2023-05-10T06:08:53;13.70;99.90
35381;DHT22;21486;51.916;8.378;2023-05-10T06:11:18;13.60;99.90
35381;DHT22;21486;51.916;8.378;2023-05-10T06:13:44;13.70;99.90
35381;DHT22;21486;51.916;8.378;2023-05-10T06:16:09;13.60;99.90
35381;DHT22;21486;51.916;8.378;2023-05-10T06:18:35;13.70;99.90
35381;DHT22;21486;51.916;8.378;2023-05-10T06:21:01;13.70;99.90
35381;DHT22;21486;51.916;8.378;2023-05-10T06:23:27;13.70;99.90
35381;DHT22;21486;51.916;8.378;2023-05-10T06:25:52;13.50;99.90
35381;DHT22;21486;51.916;8.378;2023-05-10T06:28:18;13.60;99.90
35381;DHT22;21486;51.916;8.378;2023-05-10T06:30:43;13.60;99.90
35381;DHT22;21486;51.916;8.378;2023-05-10T06:33:09;13.60;99.90
35381;DHT22;21486;51.916;8.378;2023-05-10T06:35:35;13.70;99.90
35381;DHT22;21486;51.916;8.378;2023-05-10T06:38:02;13.60;99.90
35381;DHT22;21486;51.916;8.378;2023-05-10T06:40:27;13.60;99.90
35381;DHT22;21486;51.916;8.378;2023-05-10T06:42:53;13.70;99.90
35381;DHT22;21486;51.916;8.378;2023-05-10T06:45:19;13.80;99.90
35381;DHT22;21486;51.916;8.378;2023-05-10T06:47:44;13.70;99.90
35381;DHT22;21486;51.916;8.378;2023-05-10T06:50:11;13.70;99.90
35381;DHT22;21486;51.916;8.378;2023-05-10T06:52:37;13.80;99.90
35381;DHT22;21486;51.916;8.378;2023-05-10T06:55:04;13.80;99.90
35381;DHT22;21486;51.916;8.378;2023-05-10T06:57:30;13.90;99.90
35381;DHT22;21486;51.916;8.378;2023-05-10T06:59:56;14.00;99.90
35381;DHT22;21486;51.916;8.378;2023-05-10T07:02:22;14.00;99.90
35381;DHT22;21486;51.916;8.378;2023-05-10T07:04:48;14.00;99.90
35381;DHT22;21486;51.916;8.378;2023-05-10T07:07:14;14.10;99.90
35381;DHT22;21486;51.916;8.378;2023-05-10T07:09:40;14.20;99.90
35381;DHT22;21486;51.916;8.378;2023-05-10T07:12:05;14.20;99.90
35381;DHT22;21486;51.916;8.378;2023-05-10T07:14:31;14.30;99.90
35381;DHT22;21486;51.916;8.378;2023-05-10T07:16:56;14.60;99.90
35381;DHT22;21486;51.916;8.378;2023-05-10T07:19:22;14.60;99.90
35381;DHT22;21486;51.916;8.378;2023-05-10T07:21:48;14.70;99.90
35381;DHT22;21486;51.916;8.378;2023-05-10T07:24:13;14.90;99.90
35381;DHT22;21486;51.916;8.378;2023-05-10T07:26:39;14.90;99.90
35381;DHT22;21486;51.916;8.378;2023-05-10T07:29:05;14.80;99.90
35381;DHT22;21486;51.916;8.378;2023-05-10T07:31:30;14.80;99.90
35381;DHT22;21486;51.916;8.378;2023-05-10T07:33:56;15.00;99.90
35381;DHT22;21486;51.916;8.378;2023-05-10T07:36:21;15.10;99.90
35381;DHT22;21486;51.916;8.378;2023-05-10T07:38:47;15.10;99.90
35381;DHT22;21486;51.916;8.378;2023-05-10T07:41:12;15.00;99.90
35381;DHT22;21486;51.916;8.378;2023-05-10T07:43:38;15.00;99.90
35381;DHT22;21486;51.916;8.378;2023-05-10T07:46:04;15.00;99.90
35381;DHT22;21486;51.916;8.378;2023-05-10T07:48:30;15.00;99.90
35381;DHT22;21486;51.916;8.378;2023-05-10T07:50:56;14.90;99.90
35381;DHT22;21486;51.916;8.378;2023-05-10T07:53:22;15.00;99.90
35381;DHT22;21486;51.916;8.378;2023-05-10T07:55:51;15.10;99.90
35381;DHT22;21486;51.916;8.378;2023-05-10T07:58:19;15.20;99.90
35381;DHT22;21486;51.916;8.378;2023-05-10T08:00:45;15.30;99.90
35381;DHT22;21486;51.916;8.378;2023-05-10T08:03:10;15.70;99.90
35381;DHT22;21486;51.916;8.378;2023-05-10T08:05:36;16.00;99.90
35381;DHT22;21486;51.916;8.378;2023-05-10T08:08:01;16.40;99.90
35381;DHT22;21486;51.916;8.378;2023-05-10T08:10:27;16.60;99.90
35381;DHT22;21486;51.916;8.378;2023-05-10T08:12:53;16.50;99.90
35381;DHT22;21486;51.916;8.378;2023-05-10T08:15:18;16.30;99.90
35381;DHT22;21486;51.916;8.378;2023-05-10T08:17:44;15.90;99.90
35381;DHT22;21486;51.916;8.378;2023-05-10T08:20:09;15.30;99.90
35381;DHT22;21486;51.916;8.378;2023-05-10T08:22:35;15.20;99.90
35381;DHT22;21486;51.916;8.378;2023-05-10T08:25:01;15.00;99.90
35381;DHT22;21486;51.916;8.378;2023-05-10T08:27:26;15.10;99.90
35381;DHT22;21486;51.916;8.378;2023-05-10T08:29:52;15.10;99.90
35381;DHT22;21486;51.916;8.378;2023-05-10T08:32:17;15.10;99.90
35381;DHT22;21486;51.916;8.378;2023-05-10T08:34:43;15.30;99.90
35381;DHT22;21486;51.916;8.378;2023-05-10T08:37:08;15.60;99.90
35381;DHT22;21486;51.916;8.378;2023-05-10T08:39:35;15.60;99.90
35381;DHT22;21486;51.916;8.378;2023-05-10T08:42:03;15.30;99.90
35381;DHT22;21486;51.916;8.378;2023-05-10T08:44:34;15.10;99.90
35381;DHT22;21486;51.916;8.378;2023-05-10T08:47:04;15.30;99.90
35381;DHT22;21486;51.916;8.378;2023-05-10T08:49:31;15.20;99.90
35381;DHT22;21486;51.916;8.378;2023-05-10T08:52:00;15.30;99.90
35381;DHT22;21486;51.916;8.378;2023-05-10T08:54:27;15.30;99.90
35381;DHT22;21486;51.916;8.378;2023-05-10T08:56:53;15.20;99.90
35381;DHT22;21486;51.916;8.378;2023-05-10T08:59:18;15.20;99.90
35381;DHT22;21486;51.916;8.378;2023-05-10T09:01:45;15.30;99.90
35381;DHT22;21486;51.916;8.378;2023-05-10T09:04:12;15.40;99.90
35381;DHT22;21486;51.916;8.378;2023-05-10T09:06:38;15.60;99.90
35381;DHT22;21486;51.916;8.378;2023-05-10T09:09:04;15.90;99.90
35381;DHT22;21486;51.916;8.378;2023-05-10T09:11:29;16.50;99.90
35381;DHT22;21486;51.916;8.378;2023-05-10T09:13:55;17.10;99.90
35381;DHT22;21486;51.916;8.378;2023-05-10T09:16:22;17.60;99.90
35381;DHT22;21486;51.916;8.378;2023-05-10T09:18:47;18.40;99.90
35381;DHT22;21486;51.916;8.378;2023-05-10T09:21:14;18.80;96.80
35381;DHT22;21486;51.916;8.378;2023-05-10T09:23:43;18.80;93.50
35381;DHT22;21486;51.916;8.378;2023-05-10T09:26:09;19.20;94.80
35381;DHT22;21486;51.916;8.378;2023-05-10T09:28:53;19.50;94.80
35381;DHT22;21486;51.916;8.378;2023-05-10T09:31:19;19.70;94.20
35381;DHT22;21486;51.916;8.378;2023-05-10T09:33:46;20.00;92.50
35381;DHT22;21486;51.916;8.378;2023-05-10T09:36:11;20.20;88.50
35381;DHT22;21486;51.916;8.378;2023-05-10T09:38:51;19.60;90.60
35381;DHT22;21486;51.916;8.378;2023-05-10T09:41:21;19.40;91.10
35381;DHT22;21486;51.916;8.378;2023-05-10T09:43:47;19.40;92.60
35381;DHT22;21486;51.916;8.378;2023-05-10T09:46:13;21.00;85.60
35381;DHT22;21486;51.916;8.378;2023-05-10T09:48:43;22.00;81.60
35381;DHT22;21486;51.916;8.378;2023-05-10T09:51:09;22.50;75.80
35381;DHT22;21486;51.916;8.378;2023-05-10T09:53:34;22.00;72.00
35381;DHT22;21486;51.916;8.378;2023-05-10T09:56:03;21.30;76.30
35381;DHT22;21486;51.916;8.378;2023-05-10T09:58:28;21.00;74.30
35381;DHT22;21486;51.916;8.378;2023-05-10T10:00:54;20.90;81.70
35381;DHT22;21486;51.916;8.378;2023-05-10T10:03:28;21.20;75.80
35381;DHT22;21486;51.916;8.378;2023-05-10T10:05:55;21.10;77.10
35381;DHT22;21486;51.916;8.378;2023-05-10T10:08:21;21.80;77.70
35381;DHT22;21486;51.916;8.378;2023-05-10T10:10:47;23.00;72.10
35381;DHT22;21486;51.916;8.378;2023-05-10T10:13:14;24.10;72.20
35381;DHT22;21486;51.916;8.378;2023-05-10T10:15:41;25.20;63.50
35381;DHT22;21486;51.916;8.378;2023-05-10T10:18:07;24.80;61.80
35381;DHT22;21486;51.916;8.378;2023-05-10T10:20:37;23.80;63.10
35381;DHT22;21486;51.916;8.378;2023-05-10T10:23:03;23.30;67.00
35381;DHT22;21486;51.916;8.378;2023-05-10T10:25:31;22.40;70.60
35381;DHT22;21486;51.916;8.378;2023-05-10T10:28:21;21.60;71.90
35381;DHT22;21486;51.916;8.378;2023-05-10T10:30:51;21.00;72.20
35381;DHT22;21486;51.916;8.378;2023-05-10T10:33:39;21.20;76.30
35381;DHT22;21486;51.916;8.378;2023-05-10T10:36:06;21.30;74.50
35381;DHT22;21486;51.916;8.378;2023-05-10T10:41:49;20.10;79.20
35381;DHT22;21486;51.916;8.378;2023-05-10T10:44:34;19.90;84.10
35381;DHT22;21486;51.916;8.378;2023-05-10T10:47:04;21.00;81.40
35381;DHT22;21486;51.916;8.378;2023-05-10T10:49:52;22.40;71.50
35381;DHT22;21486;51.916;8.378;2023-05-10T10:52:32;22.60;68.40
35381;DHT22;21486;51.916;8.378;2023-05-10T10:57:24;22.20;67.60
35381;DHT22;21486;51.916;8.378;2023-05-10T10:59:58;21.80;69.70
35381;DHT22;21486;51.916;8.378;2023-05-10T11:07:55;20.60;77.20
35381;DHT22;21486;51.916;8.378;2023-05-10T11:10:22;20.20;75.60
35381;DHT22;21486;51.916;8.378;2023-05-10T11:13:13;19.60;79.00
35381;DHT22;21486;51.916;8.378;2023-05-10T11:15:40;19.30;76.70
35381;DHT22;21486;51.916;8.378;2023-05-10T11:18:19;19.20;77.80
35381;DHT22;21486;51.916;8.378;2023-05-10T11:20:50;18.90;81.10
35381;DHT22;21486;51.916;8.378;2023-05-10T11:23:16;18.60;85.80
35381;DHT22;21486;51.916;8.378;2023-05-10T11:25:44;18.80;86.20
35381;DHT22;21486;51.916;8.378;2023-05-10T11:28:10;19.10;85.50
35381;DHT22;21486;51.916;8.378;2023-05-10T11:30:38;19.40;83.50
35381;DHT22;21486;51.916;8.378;2023-05-10T11:33:05;19.60;80.20
35381;DHT22;21486;51.916;8.378;2023-05-10T11:35:30;19.60;80.40
35381;DHT22;21486;51.916;8.378;2023-05-10T11:38:01;19.50;81.00
35381;DHT22;21486;51.916;8.378;2023-05-10T11:40:27;19.40;84.10
35381;DHT22;21486;51.916;8.378;2023-05-10T11:42:55;19.30;86.00
35381;DHT22;21486;51.916;8.378;2023-05-10T11:45:23;18.40;90.70
35381;DHT22;21486;51.916;8.378;2023-05-10T11:47:49;17.60;97.40
35381;DHT22;21486;51.916;8.378;2023-05-10T11:50:15;17.10;99.30
35381;DHT22;21486;51.916;8.378;2023-05-10T11:52:41;16.60;99.90
35381;DHT22;21486;51.916;8.378;2023-05-10T11:55:06;16.30;99.90
35381;DHT22;21486;51.916;8.378;2023-05-10T11:57:32;16.20;99.90
35381;DHT22;21486;51.916;8.378;2023-05-10T11:59:58;16.20;99.90
35381;DHT22;21486;51.916;8.378;2023-05-10T12:02:23;16.20;99.90
35381;DHT22;21486;51.916;8.378;2023-05-10T12:04:50;16.30;99.90
35381;DHT22;21486;51.916;8.378;2023-05-10T12:07:16;16.10;99.90
35381;DHT22;21486;51.916;8.378;2023-05-10T12:12:41;16.00;99.90
35381;DHT22;21486;51.916;8.378;2023-05-10T12:15:18;16.00;99.90
35381;DHT22;21486;51.916;8.378;2023-05-10T12:17:45;16.10;99.90
35381;DHT22;21486;51.916;8.378;2023-05-10T12:22:43;16.30;99.90
35381;DHT22;21486;51.916;8.378;2023-05-10T12:25:09;16.30;99.90
35381;DHT22;21486;51.916;8.378;2023-05-10T12:27:35;16.40;99.90
35381;DHT22;21486;51.916;8.378;2023-05-10T12:30:02;16.50;99.90
35381;DHT22;21486;51.916;8.378;2023-05-10T12:32:40;16.60;99.90
35381;DHT22;21486;51.916;8.378;2023-05-10T12:35:07;17.00;99.90
35381;DHT22;21486;51.916;8.378;2023-05-10T12:37:33;17.20;99.90
35381;DHT22;21486;51.916;8.378;2023-05-10T12:40:07;17.50;99.90
35381;DHT22;21486;51.916;8.378;2023-05-10T12:42:33;17.70;99.90
35381;DHT22;21486;51.916;8.378;2023-05-10T12:44:59;17.80;99.90
35381;DHT22;21486;51.916;8.378;2023-05-10T12:47:25;17.90;99.90
35381;DHT22;21486;51.916;8.378;2023-05-10T12:49:50;17.80;99.90
35381;DHT22;21486;51.916;8.378;2023-05-10T12:52:16;17.90;98.80
35381;DHT22;21486;51.916;8.378;2023-05-10T12:54:42;17.70;96.20
35381;DHT22;21486;51.916;8.378;2023-05-10T12:57:07;17.90;99.50
35381;DHT22;21486;51.916;8.378;2023-05-10T12:59:33;18.10;99.50
35381;DHT22;21486;51.916;8.378;2023-05-10T13:01:58;18.20;98.70
35381;DHT22;21486;51.916;8.378;2023-05-10T13:04:24;18.20;98.70
35381;DHT22;21486;51.916;8.378;2023-05-10T13:06:49;18.10;97.90
35381;DHT22;21486;51.916;8.378;2023-05-10T13:09:15;18.00;99.40
35381;DHT22;21486;51.916;8.378;2023-05-10T13:11:41;17.70;97.90
35381;DHT22;21486;51.916;8.378;2023-05-10T13:14:06;17.50;99.30
35381;DHT22;21486;51.916;8.378;2023-05-10T13:16:32;17.60;98.00
35381;DHT22;21486;51.916;8.378;2023-05-10T13:18:57;17.50;99.40
35381;DHT22;21486;51.916;8.378;2023-05-10T13:21:23;17.20;99.90
35381;DHT22;21486;51.916;8.378;2023-05-10T13:23:50;17.00;99.90
35381;DHT22;21486;51.916;8.378;2023-05-10T13:26:16;16.50;99.90
35381;DHT22;21486;51.916;8.378;2023-05-10T13:28:41;16.10;99.90
35381;DHT22;21486;51.916;8.378;2023-05-10T13:31:07;15.90;99.90
35381;DHT22;21486;51.916;8.378;2023-05-10T13:33:33;15.70;99.90
35381;DHT22;21486;51.916;8.378;2023-05-10T13:35:58;15.60;99.90
35381;DHT22;21486;51.916;8.378;2023-05-10T13:38:24;15.60;99.90
35381;DHT22;21486;51.916;8.378;2023-05-10T13:40:49;15.60;99.90
35381;DHT22;21486;51.916;8.378;2023-05-10T13:43:18;15.70;99.90
35381;DHT22;21486;51.916;8.378;2023-05-10T13:45:43;15.90;99.90
35381;DHT22;21486;51.916;8.378;2023-05-10T13:48:09;16.10;99.90
35381;DHT22;21486;51.916;8.378;2023-05-10T13:50:34;16.20;99.90
35381;DHT22;21486;51.916;8.378;2023-05-10T13:53:00;16.40;99.90
35381;DHT22;21486;51.916;8.378;2023-05-10T13:55:25;16.70;99.90
35381;DHT22;21486;51.916;8.378;2023-05-10T13:57:51;16.70;99.90
35381;DHT22;21486;51.916;8.378;2023-05-10T14:00:17;16.80;99.90
35381;DHT22;21486;51.916;8.378;2023-05-10T14:02:43;17.20;99.90
35381;DHT22;21486;51.916;8.378;2023-05-10T14:05:08;17.70;99.90
35381;DHT22;21486;51.916;8.378;2023-05-10T14:07:34;17.90;99.90
35381;DHT22;21486;51.916;8.378;2023-05-10T14:10:00;18.10;99.90
35381;DHT22;21486;51.916;8.378;2023-05-10T14:12:25;18.00;98.20
35381;DHT22;21486;51.916;8.378;2023-05-10T14:14:51;17.50;97.00
35381;DHT22;21486;51.916;8.378;2023-05-10T14:17:17;17.60;99.90
35381;DHT22;21486;51.916;8.378;2023-05-10T14:19:43;17.60;99.90
35381;DHT22;21486;51.916;8.378;2023-05-10T14:22:09;17.50;99.90
35381;DHT22;21486;51.916;8.378;2023-05-10T14:24:34;17.50;99.90
35381;DHT22;21486;51.916;8.378;2023-05-10T14:27:00;17.40;99.90
35381;DHT22;21486;51.916;8.378;2023-05-10T14:29:26;17.30;99.90
35381;DHT22;21486;51.916;8.378;2023-05-10T14:31:51;17.20;99.90
35381;DHT22;21486;51.916;8.378;2023-05-10T14:34:17;17.10;99.90
35381;DHT22;21486;51.916;8.378;2023-05-10T14:36:43;17.20;99.90
35381;DHT22;21486;51.916;8.378;2023-05-10T14:39:08;17.30;99.90
35381;DHT22;21486;51.916;8.378;2023-05-10T14:41:35;17.70;99.90
35381;DHT22;21486;51.916;8.378;2023-05-10T14:44:02;17.90;99.90
35381;DHT22;21486;51.916;8.378;2023-05-10T14:46:28;18.00;99.90
35381;DHT22;21486;51.916;8.378;2023-05-10T14:48:55;18.20;99.90
35381;DHT22;21486;51.916;8.378;2023-05-10T14:51:20;18.20;99.60
35381;DHT22;21486;51.916;8.378;2023-05-10T14:53:48;18.30;97.90
35381;DHT22;21486;51.916;8.378;2023-05-10T14:56:15;18.20;97.10
35381;DHT22;21486;51.916;8.378;2023-05-10T14:58:40;18.10;96.70
35381;DHT22;21486;51.916;8.378;2023-05-10T15:01:06;18.20;98.10
35381;DHT22;21486;51.916;8.378;2023-05-10T15:03:32;18.30;99.60
35381;DHT22;21486;51.916;8.378;2023-05-10T15:05:57;18.40;98.60
35381;DHT22;21486;51.916;8.378;2023-05-10T15:08:23;18.60;97.20
35381;DHT22;21486;51.916;8.378;2023-05-10T15:10:50;18.50;95.10
35381;DHT22;21486;51.916;8.378;2023-05-10T15:13:16;18.40;95.20
35381;DHT22;21486;51.916;8.378;2023-05-10T15:15:41;18.40;95.50
35381;DHT22;21486;51.916;8.378;2023-05-10T15:18:09;18.50;95.80
35381;DHT22;21486;51.916;8.378;2023-05-10T15:20:34;18.60;97.80
35381;DHT22;21486;51.916;8.378;2023-05-10T15:23:00;18.40;96.30
35381;DHT22;21486;51.916;8.378;2023-05-10T15:25:26;18.40;99.50
35381;DHT22;21486;51.916;8.378;2023-05-10T15:27:52;18.30;99.90
35381;DHT22;21486;51.916;8.378;2023-05-10T15:30:18;18.30;99.90
35381;DHT22;21486;51.916;8.378;2023-05-10T15:32:44;18.10;99.60
35381;DHT22;21486;51.916;8.378;2023-05-10T15:35:09;17.70;98.10
35381;DHT22;21486;51.916;8.378;2023-05-10T15:37:36;17.50;99.20
35381;DHT22;21486;51.916;8.378;2023-05-10T15:40:01;17.20;98.80
35381;DHT22;21486;51.916;8.378;2023-05-10T15:42:30;17.00;98.30
35381;DHT22;21486;51.916;8.378;2023-05-10T15:44:57;16.60;99.50
35381;DHT22;21486;51.916;8.378;2023-05-10T15:47:22;16.50;99.90
35381;DHT22;21486;51.916;8.378;2023-05-10T15:49:48;16.40;99.90
35381;DHT22;21486;51.916;8.378;2023-05-10T15:52:14;16.30;99.90
35381;DHT22;21486;51.916;8.378;2023-05-10T15:54:39;16.00;99.90
35381;DHT22;21486;51.916;8.378;2023-05-10T15:57:05;15.80;99.90
35381;DHT22;21486;51.916;8.378;2023-05-10T15:59:32;15.70;99.90
35381;DHT22;21486;51.916;8.378;2023-05-10T16:01:57;15.70;99.90
35381;DHT22;21486;51.916;8.378;2023-05-10T16:04:23;15.50;99.90